Colorado Springs, CO (80941)

11:01 PM MDT on September 20, 2014 (GMT -0600)
Carefree Circle S & Windward Circle Village 7 | Change Station
CLOSE
Current Station
Personal Weather Station
Location: Colorado Springs, CO
Elevation: 6509 ft
Nearby Weather Stations

Elev 6509 ft 38.88 °N, 104.74 °W | Updated 16 seconds ago

Overcast
Overcast
65.2 °F
Feels Like 65.2 °F
N
0.0
Wind Variable Wind from NNW
Gusts 0.0 mph

Today
High -- | Low -- °F
--% Chance of Precip.
Yesterday
High -- | Low -- °F
Precip. -- in
6:44 AM 6:59 PM
Waning Crescent, 8% visible
Pressure 30.12 in
Visibility 10.0 miles
Clouds Overcast 6500 ft
Dew Point 51 °F
Humidity 61%
Rainfall 0.00 in
Snow Depth 0 in , 0 in , 0 in
UV 0.0 out of 12
Pollen 5.60 out of 12
Ozone Good
PM2.5 Good
Flu Activity Not available.
METAR KCOS 210354Z COR 31010KT 10SM OVC065 21/08 A3039 RMK AO2 SLP199 OCNL LTGICCG DSNT SW CB DSNT SW STNRY VCSH SW-NW T02060083

More Conditions Fewer Conditions

Pressure 30.12 in
Visibility 10.0 miles
Clouds Overcast 6500 ft
Dew Point 51 °F
Humidity 61%
Rainfall 0.00 in
Snow Depth 0 in , 0 in , 0 in
UV 0.0 out of 12
Pollen 5.60 out of 12
Ozone Good
PM2.5 Good
Flu Activity Not available.
METAR KCOS 210354Z COR 31010KT 10SM OVC065 21/08 A3039 RMK AO2 SLP199 OCNL LTGICCG DSNT SW CB DSNT SW STNRY VCSH SW-NW T02060083

More Conditions Fewer Conditions

10-Day Weather Forecast

Almanac

Astronomy

Sep. 20, 2014 Rise Set
Actual Time 6:44 AM MDT 6:59 PM MDT
Civil Twilight 6:18 AM MDT 7:25 PM MDT
Nautical Twilight 5:47 AM MDT 7:56 PM MDT
Astronomical Twilight 5:15 AM MDT 8:28 PM MDT
Moon 3:27 AM MDT (9/20) 5:02 PM MDT (9/20)
Length of Visible Light 13h 07m
Length of Day
12h 14m
Tomorrow will be 2m 31s shorter.
Waning Crescent, 8% of the Moon is Illuminated
Sep 21
Waning Crescent
Sep 24
New
Oct 1
First Quarter
Oct 8
Full
Oct 15
Last Quarter

Yesterday's Extremes

State Highs State Lows

Community

WunderPhotos

Upload Photos

1,755,091 photos uploaded!

Nearby

Air Quality

  Air Quality AQ Index Pollutant
Yesterday Good
OZONE
Yesterday Good
PM2.5
Current Good
OZONE
Current Good
PM2.5
Saturday Good
PM2.5
Saturday Good
OZONE
Sunday Good
PM2.5
Sunday Good
OZONE
Monday Good
PM2.5
Monday Good
OZONE

Snow Depth

Station Depth Elevation
Cascade #2 0 in 8920 ft
Michigan Creek 0 in 10600 ft
Middle Fork Camp 0 in 9000 ft
Slumgullion 0 in 11440 ft
Never Summer 0 in 10280 ft

Earthquake Activity

City Distance Mag. Time & Date
No recent earthquake activity has been reported nearby.
Minimum magnitude displayed is 2.5.

Coastal Water Temperatures

Place Temperature
No Stations Reporting

Nearby Weather Stations